Flight Track Log - Related Links

Times and Time Zones

All times are in EDT time to prevent confusion due to time zone crossing. See the EJM918 flight status page for this flight to view local times or setup timezone preferences in your user account.

Time Position Orientation Groundspeed Altitude Reporting Facility
EDT Latitude Longitude Course Direction KTS MPH feet Rate Location/Type
Fri 05:08:52 AM 41.9333 -72.6997 262° West 174 200 1,200  Level Boston Center
Fri 05:09:54 AM 41.9247 -72.7778 262° West 195 224 5,500 4,279 Climbing Boston Center
Fri 05:10:54 AM 41.9203 -72.8808 267° West 244 281 9,900 610 Climbing Boston Center
Fri 05:16:47 AM 41.6950 -73.5450 267° West 362 417 9,700 -33 Descending FlightAware ADS-B
Fri 05:16:59 AM 41.6810 -73.5640 225° Southwest 362 417 9,700  Level FlightAware ADS-B
Fri 05:17:27 AM 41.6470 -73.6080 224° Southwest 345 397 9,700  Level FlightAware ADS-B
Fri 05:17:45 AM 41.6280 -73.6330 225° Southwest 318 366 9,700 -571 Level FlightAware ADS-B
Fri 05:18:09 AM 41.6030 -73.6650 224° Southwest 292 336 9,300 -957 Descending FlightAware ADS-B
Fri 05:18:54 AM 41.5710 -73.7070 224° Southwest 280 322 8,600 -1,216 Descending FlightAware ADS-B
Fri 05:19:23 AM 41.5350 -73.7530 224° Southwest 276 318 7,800 -1,474 Descending FlightAware ADS-B
Fri 05:19:51 AM 41.5090 -73.7860 224° Southwest 275 316 7,200 -1,180 Descending FlightAware ADS-B
Fri 05:20:24 AM 41.4794 -73.8247 224° Southwest 273 314 6,600 -897 Descending FlightAware ADS-B
Fri 05:25:59 AM 41.1445 -73.7656 172° South 184 212 1,700 -794 Descending FlightAware ADS-B
Fri 05:26:04 AM 41.1500 -73.7667 242° Southwest 188 216 2,100 -960 Climbing New York TRACON
Fri 05:26:24 AM 41.1272 -73.7522 150° Southeast 162 186 1,300 -906 Descending FlightAware ADS-B
Fri 05:26:57 AM 41.1100 -73.7380 148° Southeast 161 185 1,300 -176 Level FlightAware ADS-B
Fri 05:26:58 AM 41.1167 -73.7333 143° Southeast 147 169 1,200 -655 Descending New York TRACON
Fri 05:27:52 AM 41.0833 -73.7167 159° South 119 137 700 -556 Descending New York TRACON
Fri 05:29:00 AM 41.0667 -73.7000 242° Southwest  Level FlightAware Approximate
Fri 05:29:00 AM 41.0669 -73.7076 242° Southwest  Level Estimated
Fri 05:30:00 AM 41.0667 -73.7000 242° Southwest  Level FlightAware Approximate
Fri 05:31:00 AM 41.0669 -73.7076 242° Southwest  Level Estimated
Fri 05:36:00 AM 41.0669 -73.7076 242° Southwest  Level Estimated

Login

Don't have an account? Register now (free) for customized features, flight alerts, and more!